Time;durP1;ratioP1;P1;durP2;ratioP2;P2;SDS_P1;SDS_P2;PMS_P1;PMS_P2;Temp;Humidity;BMP_temperature;BMP_pressure;BME280_temperature;BME280_humidity;BME280_pressure;Samples;Min_cycle;Max_cycle;Signal;HPM_P1;HPM_P2
2022/11/06 00:00:37;;;;;;;11.57;4.60;;;;;;;;;;5105328;28;20055;-81
2022/11/06 00:03:04;;;;;;;12.57;4.78;;;;;;;;;;5103515;28;20055;-79
2022/11/06 00:08:25;;;;;;;14.20;5.10;;;;;;;;;;5106478;28;20055;-82
2022/11/06 00:10:51;;;;;;;13.45;4.68;;;;;;;;;;5105901;27;20049;-82
2022/11/06 00:13:18;;;;;;;11.77;4.68;;;;;;;;;;5105819;28;20514;-82
2022/11/06 00:15:44;;;;;;;10.60;4.65;;;;;;;;;;5105012;28;20517;-80
2022/11/06 00:18:10;;;;;;;11.73;4.68;;;;;;;;;;5105609;28;20056;-81
2022/11/06 00:20:37;;;;;;;12.65;5.30;;;;;;;;;;5105053;28;20052;-77
2022/11/06 00:23:03;;;;;;;10.88;5.30;;;;;;;;;;5105684;28;20087;-79
2022/11/06 00:25:29;;;;;;;11.27;4.80;;;;;;;;;;5103353;28;20063;-78
2022/11/06 00:27:56;;;;;;;15.50;4.95;;;;;;;;;;5105125;28;20056;-78
2022/11/06 00:30:23;;;;;;;11.70;5.28;;;;;;;;;;5088088;27;21091;-78
2022/11/06 00:32:50;;;;;;;13.02;5.40;;;;;;;;;;5086729;28;20434;-80
2022/11/06 00:35:16;;;;;;;10.63;4.68;;;;;;;;;;5102752;28;20430;-78
2022/11/06 00:37:42;;;;;;;10.80;4.72;;;;;;;;;;5104150;28;20052;-83
2022/11/06 00:40:09;;;;;;;10.85;4.82;;;;;;;;;;5105483;28;20056;-78
2022/11/06 00:42:35;;;;;;;14.38;4.95;;;;;;;;;;5105068;27;20048;-80
2022/11/06 00:45:02;;;;;;;11.20;5.03;;;;;;;;;;5104404;28;20056;-79
2022/11/06 00:47:28;;;;;;;11.07;4.65;;;;;;;;;;5102386;28;20576;-79
2022/11/06 00:49:54;;;;;;;11.55;5.03;;;;;;;;;;5104448;28;20055;-79
2022/11/06 00:52:23;;;;;;;13.95;5.28;;;;;;;;;;5103915;28;21568;-77
2022/11/06 00:54:49;;;;;;;16.52;4.95;;;;;;;;;;5105748;28;20078;-83
2022/11/06 00:57:16;;;;;;;10.00;4.57;;;;;;;;;;5105526;28;20095;-81
2022/11/06 00:59:42;;;;;;;12.13;5.15;;;;;;;;;;5103761;28;21063;-81
2022/11/06 01:02:08;;;;;;;9.68;4.65;;;;;;;;;;5102773;27;20537;-80
2022/11/06 01:04:35;;;;;;;11.88;4.85;;;;;;;;;;5104870;27;20083;-81
2022/11/06 01:07:01;;;;;;;9.50;4.65;;;;;;;;;;5096787;28;20052;-79
2022/11/06 01:09:27;;;;;;;11.82;4.40;;;;;;;;;;5101122;28;20572;-82
2022/11/06 01:11:55;;;;;;;11.98;5.13;;;;;;;;;;5097427;27;20059;-78
2022/11/06 01:14:39;;;;;;;10.40;4.35;;;;;;;;;;5084883;28;20052;-81
2022/11/06 01:17:06;;;;;;;10.50;5.13;;;;;;;;;;5102624;28;20051;-79
2022/11/06 01:19:32;;;;;;;10.00;4.65;;;;;;;;;;5103546;28;20052;-79
2022/11/06 01:21:58;;;;;;;9.98;4.85;;;;;;;;;;5103299;28;20067;-79
2022/11/06 01:24:26;;;;;;;14.90;4.68;;;;;;;;;;5104669;28;20110;-80
2022/11/06 01:26:53;;;;;;;10.10;4.68;;;;;;;;;;5103171;28;20048;-81
2022/11/06 01:29:39;;;;;;;10.70;4.40;;;;;;;;;;5100473;28;20052;-82
2022/11/06 01:32:05;;;;;;;9.90;4.78;;;;;;;;;;5102342;28;20056;-80
2022/11/06 01:34:32;;;;;;;10.38;4.22;;;;;;;;;;5102486;28;20052;-78
2022/11/06 01:36:58;;;;;;;9.88;4.38;;;;;;;;;;5100603;28;20511;-79
2022/11/06 01:39:24;;;;;;;9.80;4.18;;;;;;;;;;5102924;28;20063;-80
2022/11/06 01:41:52;;;;;;;11.15;4.22;;;;;;;;;;5102829;27;20052;-78
2022/11/06 01:44:37;;;;;;;9.55;4.32;;;;;;;;;;5102992;28;20052;-79
2022/11/06 01:47:06;;;;;;;12.77;4.50;;;;;;;;;;5102966;28;20162;-79
2022/11/06 01:49:34;;;;;;;13.57;4.22;;;;;;;;;;5104015;27;20060;-81
2022/11/06 01:52:04;;;;;;;9.25;4.10;;;;;;;;;;5095110;27;20507;-80
2022/11/06 01:54:32;;;;;;;11.75;4.88;;;;;;;;;;5088140;28;20125;-81
2022/11/06 01:57:00;;;;;;;12.30;4.38;;;;;;;;;;5104515;28;20055;-79
2022/11/06 01:59:28;;;;;;;10.43;4.13;;;;;;;;;;5101422;28;20052;-83
2022/11/06 02:01:54;;;;;;;11.18;4.78;;;;;;;;;;5103617;27;20067;-80
2022/11/06 02:04:20;;;;;;;12.07;4.22;;;;;;;;;;5103516;28;20873;-81
2022/11/06 02:06:47;;;;;;;15.00;4.00;;;;;;;;;;5085866;28;20507;-82
2022/11/06 02:09:14;;;;;;;8.90;4.13;;;;;;;;;;5098140;28;20086;-80
2022/11/06 02:11:42;;;;;;;14.23;5.30;;;;;;;;;;5089541;28;20048;-81
2022/11/06 02:14:13;;;;;;;10.98;3.88;;;;;;;;;;5102611;28;20473;-79
2022/11/06 02:16:50;;;;;;;10.68;3.78;;;;;;;;;;5103243;27;21125;-82
2022/11/06 02:19:16;;;;;;;14.27;4.10;;;;;;;;;;5103458;27;20529;-79
2022/11/06 02:22:01;;;;;;;9.50;3.75;;;;;;;;;;5101523;28;20463;-80
2022/11/06 02:24:34;;;;;;;9.52;4.15;;;;;;;;;;5103574;28;20062;-82
2022/11/06 02:27:03;;;;;;;9.93;3.70;;;;;;;;;;5102844;28;20050;-79
2022/11/06 02:29:48;;;;;;;7.80;3.20;;;;;;;;;;5100081;28;20135;-82
2022/11/06 02:32:18;;;;;;;12.52;4.50;;;;;;;;;;5102195;28;20058;-81
2022/11/06 02:34:45;;;;;;;10.13;3.80;;;;;;;;;;5103832;27;20048;-81
2022/11/06 02:37:22;;;;;;;10.05;3.70;;;;;;;;;;5096330;28;20049;-78
2022/11/06 02:39:50;;;;;;;10.48;3.55;;;;;;;;;;5101864;28;20068;-81
2022/11/06 02:42:17;;;;;;;9.38;3.10;;;;;;;;;;5103928;27;20501;-78
2022/11/06 02:44:46;;;;;;;8.40;3.20;;;;;;;;;;5103483;27;20052;-78
2022/11/06 02:47:13;;;;;;;8.85;3.40;;;;;;;;;;5093030;28;20052;-78
2022/11/06 02:49:39;;;;;;;8.70;3.17;;;;;;;;;;5097269;27;20153;-78
2022/11/06 02:52:12;;;;;;;14.45;3.50;;;;;;;;;;5103146;28;20048;-78
2022/11/06 02:54:41;;;;;;;9.38;3.30;;;;;;;;;;5105646;27;20064;-78
2022/11/06 02:57:09;;;;;;;10.52;3.45;;;;;;;;;;5106167;28;20129;-82
2022/11/06 02:59:41;;;;;;;8.07;3.33;;;;;;;;;;5105117;27;20652;-83
2022/11/06 03:02:11;;;;;;;11.77;3.50;;;;;;;;;;5105095;28;20055;-82
2022/11/06 03:04:37;;;;;;;13.88;3.30;;;;;;;;;;5088282;27;20148;-83
2022/11/06 03:07:19;;;;;;;9.27;3.30;;;;;;;;;;5094066;28;20060;-82
2022/11/06 03:09:47;;;;;;;8.88;3.60;;;;;;;;;;5104693;28;20063;-82
2022/11/06 03:12:19;;;;;;;9.52;3.33;;;;;;;;;;5106545;27;20445;-82
2022/11/06 03:14:48;;;;;;;10.77;3.40;;;;;;;;;;5106587;27;20056;-78
2022/11/06 03:17:17;;;;;;;9.30;3.22;;;;;;;;;;5103011;28;20064;-83
2022/11/06 03:19:53;;;;;;;13.15;3.58;;;;;;;;;;5104213;28;20056;-78
2022/11/06 03:22:19;;;;;;;11.25;3.38;;;;;;;;;;5106929;27;20590;-81
2022/11/06 03:24:46;;;;;;;9.45;3.30;;;;;;;;;;5105847;28;20055;-81
2022/11/06 03:27:22;;;;;;;10.27;3.13;;;;;;;;;;5110490;27;20060;-78
2022/11/06 03:29:51;;;;;;;9.90;4.10;;;;;;;;;;5102834;28;20536;-81
2022/11/06 03:32:41;;;;;;;8.82;3.08;;;;;;;;;;5093222;28;20063;-81
2022/11/06 03:35:16;;;;;;;11.02;3.13;;;;;;;;;;5062702;28;20139;-82
2022/11/06 03:37:46;;;;;;;9.18;3.00;;;;;;;;;;5086438;28;20052;-79
2022/11/06 03:40:15;;;;;;;10.57;2.65;;;;;;;;;;5106800;27;20118;-79
2022/11/06 03:42:42;;;;;;;10.68;2.90;;;;;;;;;;5103597;28;20055;-80
2022/11/06 03:45:12;;;;;;;10.02;2.85;;;;;;;;;;5106695;27;20055;-79
2022/11/06 03:47:44;;;;;;;11.05;2.95;;;;;;;;;;5092062;28;20084;-78
2022/11/06 03:50:21;;;;;;;6.78;2.72;;;;;;;;;;5105851;27;20052;-80
2022/11/06 03:53:10;;;;;;;10.15;2.97;;;;;;;;;;5107375;27;20068;-77
2022/11/06 03:55:40;;;;;;;9.63;3.05;;;;;;;;;;5095460;27;20453;-79
2022/11/06 03:58:09;;;;;;;7.00;3.00;;;;;;;;;;5105067;28;20114;-79
2022/11/06 04:00:39;;;;;;;6.40;2.70;;;;;;;;;;5104743;27;20080;-81
2022/11/06 04:03:12;;;;;;;10.02;2.92;;;;;;;;;;5106097;27;20052;-81
2022/11/06 04:05:41;;;;;;;9.10;2.72;;;;;;;;;;5104426;27;20064;-78
2022/11/06 04:13:59;;;;;;;6.85;2.53;;;;;;;;;;5105278;27;20052;-79
2022/11/06 04:16:30;;;;;;;8.20;2.35;;;;;;;;;;5104638;28;20059;-79
2022/11/06 04:18:57;;;;;;;10.55;3.17;;;;;;;;;;5106322;28;20545;-82
2022/11/06 04:21:24;;;;;;;7.20;2.40;;;;;;;;;;5107229;27;20048;-79
2022/11/06 04:26:59;;;;;;;8.70;2.75;;;;;;;;;;5105795;28;20578;-78
2022/11/06 04:29:33;;;;;;;7.20;2.70;;;;;;;;;;5105751;28;20036;-80
2022/11/06 04:32:14;;;;;;;11.55;2.80;;;;;;;;;;5107804;27;20104;-82
2022/11/06 04:34:40;;;;;;;9.15;2.70;;;;;;;;;;5104389;28;20052;-80
2022/11/06 04:37:07;;;;;;;8.85;2.50;;;;;;;;;;5106746;28;20067;-79
2022/11/06 04:39:39;;;;;;;12.00;3.33;;;;;;;;;;5106475;28;20551;-79
2022/11/06 04:42:10;;;;;;;12.13;2.70;;;;;;;;;;5107014;28;20048;-79
2022/11/06 04:44:46;;;;;;;7.45;2.42;;;;;;;;;;5104227;27;20083;-79
2022/11/06 04:47:15;;;;;;;13.23;2.55;;;;;;;;;;5101253;28;20044;-82
2022/11/06 04:49:42;;;;;;;10.48;2.60;;;;;;;;;;5101017;28;20061;-79
2022/11/06 04:52:10;;;;;;;9.45;2.67;;;;;;;;;;5088293;28;20048;-78
2022/11/06 04:54:37;;;;;;;14.75;2.78;;;;;;;;;;5100877;28;20055;-80
2022/11/06 04:57:03;;;;;;;10.20;2.60;;;;;;;;;;5086487;28;20056;-79
2022/11/06 04:59:32;;;;;;;7.57;2.22;;;;;;;;;;5104636;28;20051;-78
2022/11/06 05:01:59;;;;;;;8.52;2.63;;;;;;;;;;5104732;27;20110;-82
2022/11/06 05:04:25;;;;;;;8.57;2.40;;;;;;;;;;5103698;28;20138;-80
2022/11/06 05:06:51;;;;;;;7.60;2.35;;;;;;;;;;5105642;28;20059;-79
2022/11/06 05:09:18;;;;;;;10.70;2.65;;;;;;;;;;5105204;28;20044;-79
2022/11/06 05:11:44;;;;;;;8.93;2.38;;;;;;;;;;5104164;28;20055;-78
2022/11/06 05:14:10;;;;;;;12.23;2.60;;;;;;;;;;5102701;28;20782;-80
2022/11/06 05:16:37;;;;;;;6.18;2.35;;;;;;;;;;5095764;28;20064;-82
2022/11/06 05:19:03;;;;;;;10.48;2.80;;;;;;;;;;5084081;28;20126;-79
2022/11/06 05:24:14;;;;;;;11.27;3.28;;;;;;;;;;5104370;28;20620;-79
2022/11/06 05:26:41;;;;;;;9.27;2.30;;;;;;;;;;5102288;28;20055;-80
2022/11/06 05:29:07;;;;;;;7.38;2.28;;;;;;;;;;5103714;28;20052;-82
2022/11/06 05:31:33;;;;;;;12.80;2.63;;;;;;;;;;5104899;28;20059;-79
2022/11/06 05:34:00;;;;;;;11.88;2.58;;;;;;;;;;5099743;28;20056;-80
2022/11/06 05:36:26;;;;;;;9.10;2.65;;;;;;;;;;5106367;28;20136;-79
2022/11/06 05:38:52;;;;;;;9.15;2.88;;;;;;;;;;5103510;28;20711;-79
2022/11/06 05:41:18;;;;;;;8.35;2.30;;;;;;;;;;5105873;28;20055;-82
2022/11/06 05:43:45;;;;;;;10.23;2.53;;;;;;;;;;5103054;28;20060;-81
2022/11/06 05:46:11;;;;;;;6.50;2.30;;;;;;;;;;5105855;28;20048;-77
2022/11/06 05:48:57;;;;;;;9.85;2.40;;;;;;;;;;5105099;28;20129;-78
2022/11/06 05:51:24;;;;;;;11.68;2.58;;;;;;;;;;5105820;28;20502;-78
2022/11/06 05:53:50;;;;;;;8.18;2.53;;;;;;;;;;5102497;28;20052;-78
2022/11/06 05:56:16;;;;;;;12.02;2.72;;;;;;;;;;5086966;28;20060;-78
2022/11/06 05:58:43;;;;;;;9.65;2.78;;;;;;;;;;5103323;28;20059;-81
2022/11/06 06:01:09;;;;;;;13.13;2.70;;;;;;;;;;5102233;28;20143;-77
2022/11/06 06:03:36;;;;;;;6.95;2.65;;;;;;;;;;5099228;28;20526;-79
2022/11/06 06:06:02;;;;;;;10.10;2.70;;;;;;;;;;5087941;28;20060;-79
2022/11/06 06:08:28;;;;;;;6.38;2.72;;;;;;;;;;5102936;28;20040;-78
2022/11/06 06:10:55;;;;;;;8.77;2.95;;;;;;;;;;5084781;28;20060;-78
2022/11/06 06:13:21;;;;;;;8.05;3.03;;;;;;;;;;5095693;28;20055;-77
2022/11/06 06:15:47;;;;;;;7.75;2.38;;;;;;;;;;5105444;28;20048;-77
2022/11/06 06:18:14;;;;;;;6.90;2.83;;;;;;;;;;5104141;28;20060;-77
2022/11/06 06:20:40;;;;;;;9.32;2.88;;;;;;;;;;5103561;28;20060;-80
2022/11/06 06:23:08;;;;;;;10.50;2.75;;;;;;;;;;5104030;28;20052;-79
2022/11/06 06:25:35;;;;;;;11.07;2.80;;;;;;;;;;5100937;28;20052;-79
2022/11/06 06:28:01;;;;;;;9.75;3.05;;;;;;;;;;5105041;27;20096;-80
2022/11/06 06:30:27;;;;;;;9.30;2.92;;;;;;;;;;5106774;28;20109;-79
2022/11/06 06:32:53;;;;;;;9.27;2.95;;;;;;;;;;5105008;28;20056;-77
2022/11/06 06:35:20;;;;;;;8.23;3.00;;;;;;;;;;5107139;28;20048;-79
2022/11/06 06:37:50;;;;;;;10.38;3.05;;;;;;;;;;5107991;28;20063;-78
2022/11/06 06:40:16;;;;;;;10.85;3.17;;;;;;;;;;5105851;28;20048;-77
2022/11/06 06:42:43;;;;;;;9.63;3.13;;;;;;;;;;5107098;28;20067;-79
2022/11/06 06:45:09;;;;;;;8.02;3.10;;;;;;;;;;5104379;28;20056;-77
2022/11/06 06:47:35;;;;;;;7.93;2.92;;;;;;;;;;5108395;28;20851;-77
2022/11/06 06:50:02;;;;;;;9.80;2.92;;;;;;;;;;5107102;28;20059;-79
2022/11/06 06:52:28;;;;;;;8.02;2.80;;;;;;;;;;5103429;28;20549;-78
2022/11/06 06:54:54;;;;;;;11.73;3.28;;;;;;;;;;5105606;28;20601;-80
2022/11/06 06:57:21;;;;;;;7.97;3.05;;;;;;;;;;5106063;28;20051;-80
2022/11/06 06:59:47;;;;;;;10.73;3.42;;;;;;;;;;5107883;27;20805;-77
2022/11/06 07:02:13;;;;;;;6.15;2.90;;;;;;;;;;5107169;28;20085;-77
2022/11/06 07:04:40;;;;;;;8.38;2.97;;;;;;;;;;5101970;27;20057;-78
2022/11/06 07:07:06;;;;;;;10.25;3.10;;;;;;;;;;5107388;27;20132;-77
2022/11/06 07:09:33;;;;;;;9.07;3.03;;;;;;;;;;5108115;28;20048;-80
2022/11/06 07:11:59;;;;;;;9.45;3.00;;;;;;;;;;5108846;28;20095;-82
2022/11/06 07:14:25;;;;;;;6.10;2.92;;;;;;;;;;5106666;28;20507;-79
2022/11/06 07:16:52;;;;;;;8.00;2.95;;;;;;;;;;5103088;28;20056;-78
2022/11/06 07:19:19;;;;;;;9.23;2.85;;;;;;;;;;5107278;27;20110;-76
2022/11/06 07:21:45;;;;;;;13.90;3.38;;;;;;;;;;5105535;28;20150;-80
2022/11/06 07:24:12;;;;;;;6.68;2.65;;;;;;;;;;5106615;28;20550;-79
2022/11/06 07:26:38;;;;;;;8.68;2.90;;;;;;;;;;5104394;28;20791;-78
2022/11/06 07:29:05;;;;;;;5.53;2.55;;;;;;;;;;5106026;28;20054;-81
2022/11/06 07:31:31;;;;;;;8.05;2.70;;;;;;;;;;5107254;28;20055;-79
2022/11/06 07:33:57;;;;;;;9.40;2.80;;;;;;;;;;5104519;28;20234;-76
2022/11/06 07:36:24;;;;;;;8.35;2.38;;;;;;;;;;5105595;28;20572;-78
2022/11/06 07:38:50;;;;;;;7.60;2.40;;;;;;;;;;5103286;27;20447;-81
2022/11/06 07:41:16;;;;;;;12.57;3.47;;;;;;;;;;5105195;28;20040;-80
2022/11/06 07:43:43;;;;;;;10.50;2.97;;;;;;;;;;5105595;28;20052;-80
2022/11/06 07:46:10;;;;;;;10.10;2.95;;;;;;;;;;5109282;28;20059;-78
2022/11/06 07:48:36;;;;;;;9.70;3.10;;;;;;;;;;5107170;27;20048;-79
2022/11/06 07:51:04;;;;;;;7.07;2.53;;;;;;;;;;5106975;28;20063;-82
2022/11/06 07:53:31;;;;;;;7.95;2.55;;;;;;;;;;5102628;28;20049;-79
2022/11/06 07:55:57;;;;;;;9.80;3.03;;;;;;;;;;5105421;28;20514;-80
2022/11/06 07:58:24;;;;;;;9.95;2.88;;;;;;;;;;5108604;28;20063;-79
2022/11/06 08:00:51;;;;;;;11.25;2.63;;;;;;;;;;5107545;27;20504;-81
2022/11/06 08:03:18;;;;;;;7.57;2.75;;;;;;;;;;5107112;28;20052;-80
2022/11/06 08:05:45;;;;;;;8.05;2.67;;;;;;;;;;5105426;27;20059;-81
2022/11/06 08:08:11;;;;;;;7.47;2.70;;;;;;;;;;5106226;28;20126;-79
2022/11/06 08:10:39;;;;;;;7.95;2.55;;;;;;;;;;5106585;28;20056;-82
2022/11/06 08:13:06;;;;;;;10.50;2.97;;;;;;;;;;5103841;28;20052;-79
2022/11/06 08:15:32;;;;;;;7.50;2.55;;;;;;;;;;5107296;27;20059;-81
2022/11/06 08:17:59;;;;;;;13.00;4.05;;;;;;;;;;5106827;28;20075;-79
2022/11/06 08:20:25;;;;;;;14.13;3.85;;;;;;;;;;5105163;28;20510;-80
2022/11/06 08:22:51;;;;;;;9.13;3.53;;;;;;;;;;5103812;28;20048;-79
2022/11/06 08:25:18;;;;;;;9.02;2.72;;;;;;;;;;5108030;28;20056;-81
2022/11/06 08:27:44;;;;;;;10.88;3.28;;;;;;;;;;5107610;28;20052;-79
2022/11/06 08:30:11;;;;;;;8.20;2.83;;;;;;;;;;5104547;28;20060;-79
2022/11/06 08:32:37;;;;;;;8.40;2.78;;;;;;;;;;5102731;27;20788;-81
2022/11/06 08:35:03;;;;;;;8.70;2.50;;;;;;;;;;5107334;28;20051;-80
2022/11/06 08:37:30;;;;;;;10.75;2.88;;;;;;;;;;5103642;28;20048;-81
2022/11/06 08:39:56;;;;;;;7.47;2.47;;;;;;;;;;5107373;28;20056;-79
2022/11/06 08:42:22;;;;;;;9.00;3.15;;;;;;;;;;5104206;28;20209;-79
2022/11/06 08:44:49;;;;;;;8.02;3.65;;;;;;;;;;5097096;28;20063;-81
2022/11/06 08:47:15;;;;;;;6.63;1.90;;;;;;;;;;5104607;28;20044;-80
2022/11/06 08:49:41;;;;;;;13.07;4.80;;;;;;;;;;5099697;28;21015;-79
2022/11/06 08:52:07;;;;;;;11.13;4.22;;;;;;;;;;5095630;27;20066;-75
2022/11/06 08:54:34;;;;;;;11.85;5.68;;;;;;;;;;5105003;28;20048;-82
2022/11/06 08:57:00;;;;;;;7.22;3.85;;;;;;;;;;5105139;28;20055;-79
2022/11/06 08:59:27;;;;;;;11.30;2.58;;;;;;;;;;5103720;28;20131;-78
2022/11/06 09:01:55;;;;;;;8.05;2.75;;;;;;;;;;5089086;27;20861;-78
2022/11/06 09:04:21;;;;;;;5.43;2.03;;;;;;;;;;5100656;27;20904;-79
2022/11/06 09:06:48;;;;;;;11.00;2.42;;;;;;;;;;5088458;27;20168;-77
2022/11/06 09:09:14;;;;;;;7.05;1.75;;;;;;;;;;5099562;28;20510;-77
2022/11/06 09:11:40;;;;;;;3.60;2.00;;;;;;;;;;5105456;28;20063;-77
2022/11/06 09:14:06;;;;;;;10.68;2.95;;;;;;;;;;5105242;28;20052;-78
2022/11/06 09:16:33;;;;;;;5.82;2.00;;;;;;;;;;5100425;27;20060;-81
2022/11/06 09:18:59;;;;;;;8.35;1.90;;;;;;;;;;5099077;28;20048;-80
2022/11/06 09:21:25;;;;;;;6.57;1.77;;;;;;;;;;5103782;28;20048;-77
2022/11/06 09:23:52;;;;;;;4.50;1.63;;;;;;;;;;5102505;27;20059;-77
2022/11/06 09:26:18;;;;;;;6.28;2.08;;;;;;;;;;5098543;28;20064;-78
2022/11/06 09:28:45;;;;;;;5.43;1.63;;;;;;;;;;5095021;28;20079;-77
2022/11/06 09:31:11;;;;;;;6.95;1.80;;;;;;;;;;5101864;27;20068;-79
2022/11/06 09:33:37;;;;;;;6.82;1.90;;;;;;;;;;5098017;28;20124;-77
2022/11/06 09:36:04;;;;;;;6.80;2.03;;;;;;;;;;5094793;28;20060;-79
2022/11/06 09:38:31;;;;;;;9.05;2.03;;;;;;;;;;5094541;28;20071;-77
2022/11/06 09:41:01;;;;;;;8.98;1.98;;;;;;;;;;5092402;28;20506;-76
2022/11/06 09:43:32;;;;;;;6.87;1.70;;;;;;;;;;5097715;28;20056;-76
2022/11/06 09:46:23;;;;;;;6.30;2.10;;;;;;;;;;5093496;28;20141;-77
2022/11/06 09:48:55;;;;;;;6.25;1.88;;;;;;;;;;5099854;28;20059;-76
2022/11/06 09:51:41;;;;;;;4.78;1.60;;;;;;;;;;5101427;27;20447;-78
2022/11/06 09:54:12;;;;;;;8.10;1.58;;;;;;;;;;5091896;28;20091;-77
2022/11/06 09:56:40;;;;;;;7.28;1.67;;;;;;;;;;5103554;28;20556;-80
2022/11/06 09:59:09;;;;;;;6.82;1.75;;;;;;;;;;5098142;28;20434;-78
2022/11/06 10:01:41;;;;;;;4.72;1.40;;;;;;;;;;5082353;28;20558;-78
2022/11/06 10:04:17;;;;;;;11.05;2.38;;;;;;;;;;5098539;27;20441;-79
2022/11/06 10:06:43;;;;;;;5.75;1.80;;;;;;;;;;5096897;27;20164;-81
2022/11/06 10:09:10;;;;;;;6.57;1.48;;;;;;;;;;5099351;28;20067;-80
2022/11/06 10:11:45;;;;;;;5.82;1.45;;;;;;;;;;5103085;28;20048;-77
2022/11/06 10:14:20;;;;;;;5.57;1.40;;;;;;;;;;5098667;28;20043;-78
2022/11/06 10:16:57;;;;;;;6.50;1.50;;;;;;;;;;5103971;28;20102;-79
2022/11/06 10:19:43;;;;;;;8.07;1.55;;;;;;;;;;5103428;27;20048;-79
2022/11/06 10:22:16;;;;;;;5.88;1.63;;;;;;;;;;5101919;28;20056;-76
2022/11/06 10:24:44;;;;;;;4.65;1.35;;;;;;;;;;5089330;28;20052;-79
2022/11/06 10:27:16;;;;;;;7.10;1.40;;;;;;;;;;5098899;28;20407;-76
2022/11/06 10:30:02;;;;;;;4.75;1.40;;;;;;;;;;5099791;28;20724;-78
2022/11/06 10:32:29;;;;;;;9.52;1.75;;;;;;;;;;5083354;28;20064;-78
2022/11/06 10:35:05;;;;;;;10.73;1.85;;;;;;;;;;5089968;28;20056;-78
2022/11/06 10:37:34;;;;;;;6.95;1.60;;;;;;;;;;5104434;28;20059;-79
2022/11/06 10:40:03;;;;;;;5.03;1.60;;;;;;;;;;5101451;27;20052;-78
2022/11/06 10:42:36;;;;;;;5.45;1.70;;;;;;;;;;5101748;28;20477;-79
2022/11/06 10:45:09;;;;;;;5.53;1.70;;;;;;;;;;5102962;28;20138;-79
2022/11/06 10:47:38;;;;;;;8.88;1.92;;;;;;;;;;5095994;27;20053;-78
2022/11/06 10:50:10;;;;;;;7.47;2.00;;;;;;;;;;5087799;28;20052;-80
2022/11/06 10:52:46;;;;;;;6.70;1.77;;;;;;;;;;5105308;27;20056;-78
2022/11/06 10:55:14;;;;;;;6.68;1.80;;;;;;;;;;5102666;28;20063;-78
2022/11/06 10:57:56;;;;;;;6.18;1.73;;;;;;;;;;5098714;28;20048;-78
2022/11/06 11:00:22;;;;;;;5.97;1.70;;;;;;;;;;5101168;28;20060;-78
2022/11/06 11:02:54;;;;;;;6.95;1.70;;;;;;;;;;5103050;27;20052;-77
2022/11/06 11:05:22;;;;;;;6.97;1.60;;;;;;;;;;5092013;27;20485;-79
2022/11/06 11:07:49;;;;;;;8.52;2.00;;;;;;;;;;5089601;28;20060;-80
2022/11/06 11:10:32;;;;;;;7.15;1.52;;;;;;;;;;5100721;27;20056;-78
2022/11/06 11:12:59;;;;;;;6.03;1.63;;;;;;;;;;5101454;28;20078;-79
2022/11/06 11:15:43;;;;;;;8.43;2.55;;;;;;;;;;5103938;27;20056;-78
2022/11/06 11:18:16;;;;;;;5.95;2.10;;;;;;;;;;5107079;27;20585;-78
2022/11/06 11:20:50;;;;;;;7.00;1.80;;;;;;;;;;5100981;28;20582;-79
2022/11/06 11:23:18;;;;;;;6.00;1.60;;;;;;;;;;5100058;28;20161;-78
2022/11/06 11:25:46;;;;;;;8.25;1.90;;;;;;;;;;5104610;27;20055;-79
2022/11/06 11:28:20;;;;;;;4.82;1.77;;;;;;;;;;5101295;28;20509;-79
2022/11/06 11:30:50;;;;;;;12.32;2.05;;;;;;;;;;5105455;28;20537;-77
2022/11/06 11:33:18;;;;;;;8.38;1.73;;;;;;;;;;5107961;27;20062;-78
2022/11/06 11:35:54;;;;;;;10.98;4.18;;;;;;;;;;5109735;27;20056;-80
2022/11/06 11:38:27;;;;;;;9.13;2.67;;;;;;;;;;5100987;28;20064;-80
2022/11/06 11:41:04;;;;;;;6.50;1.65;;;;;;;;;;5088931;28;20612;-80
2022/11/06 11:43:31;;;;;;;6.55;1.55;;;;;;;;;;5087240;28;20499;-79
2022/11/06 11:46:02;;;;;;;6.90;1.38;;;;;;;;;;5098745;28;20137;-81
2022/11/06 11:48:42;;;;;;;9.23;1.77;;;;;;;;;;5105952;28;20059;-79
2022/11/06 11:51:14;;;;;;;5.18;1.38;;;;;;;;;;5107718;28;20052;-80
2022/11/06 11:53:41;;;;;;;8.68;2.90;;;;;;;;;;5108395;28;20515;-80
2022/11/06 11:56:12;;;;;;;5.15;1.88;;;;;;;;;;5099612;28;20086;-77
2022/11/06 11:58:39;;;;;;;8.13;1.70;;;;;;;;;;5104403;28;20083;-78
2022/11/06 12:01:07;;;;;;;5.43;1.80;;;;;;;;;;5106608;28;20064;-78
2022/11/06 12:03:39;;;;;;;7.05;2.80;;;;;;;;;;5107117;27;20052;-79
2022/11/06 12:06:13;;;;;;;6.00;1.77;;;;;;;;;;5106141;27;20057;-78
2022/11/06 12:08:43;;;;;;;5.47;1.27;;;;;;;;;;5100545;28;20059;-78
2022/11/06 12:11:13;;;;;;;5.85;1.30;;;;;;;;;;5092269;28;20058;-80
2022/11/06 12:13:39;;;;;;;5.85;1.30;;;;;;;;;;5104955;27;20166;-79
2022/11/06 12:16:09;;;;;;;5.53;1.88;;;;;;;;;;5101637;28;20052;-78
2022/11/06 12:18:40;;;;;;;7.00;1.98;;;;;;;;;;5105624;27;20071;-79
2022/11/06 12:21:25;;;;;;;6.90;1.38;;;;;;;;;;5107035;27;20058;-81
2022/11/06 12:23:51;;;;;;;5.85;1.63;;;;;;;;;;5106299;28;20914;-79
2022/11/06 12:26:24;;;;;;;9.20;1.60;;;;;;;;;;5104283;27;20071;-80
2022/11/06 12:28:51;;;;;;;7.88;2.22;;;;;;;;;;5105453;28;20059;-79
2022/11/06 12:31:38;;;;;;;7.75;1.88;;;;;;;;;;5100095;28;20083;-79
2022/11/06 12:34:06;;;;;;;4.75;1.40;;;;;;;;;;5100076;28;20091;-79
2022/11/06 12:36:42;;;;;;;7.65;1.15;;;;;;;;;;5105138;27;20060;-79
2022/11/06 12:39:21;;;;;;;6.57;1.58;;;;;;;;;;5105702;28;20044;-80
2022/11/06 12:41:49;;;;;;;6.07;1.35;;;;;;;;;;5102937;28;20059;-81
2022/11/06 12:44:18;;;;;;;6.38;1.40;;;;;;;;;;5103345;28;20055;-78
2022/11/06 12:46:45;;;;;;;6.60;1.20;;;;;;;;;;5098411;27;20511;-80
2022/11/06 12:49:32;;;;;;;7.22;1.67;;;;;;;;;;5096654;28;20109;-78
2022/11/06 12:52:20;;;;;;;4.53;1.73;;;;;;;;;;5093875;28;20048;-78
2022/11/06 12:54:53;;;;;;;5.55;1.25;;;;;;;;;;5099277;28;20067;-79
2022/11/06 12:57:28;;;;;;;7.10;1.48;;;;;;;;;;5101498;28;20045;-79
2022/11/06 13:00:01;;;;;;;5.60;1.40;;;;;;;;;;5101605;28;20052;-79
2022/11/06 13:02:27;;;;;;;7.40;1.30;;;;;;;;;;5104296;28;20063;-76
2022/11/06 13:05:02;;;;;;;11.15;1.60;;;;;;;;;;5086055;28;20095;-79
2022/11/06 13:07:28;;;;;;;9.45;1.52;;;;;;;;;;5094154;28;20063;-78
2022/11/06 13:09:55;;;;;;;9.05;2.33;;;;;;;;;;5089335;28;20056;-78
2022/11/06 13:12:24;;;;;;;6.28;1.50;;;;;;;;;;5101218;28;20070;-77
2022/11/06 13:14:56;;;;;;;4.80;1.15;;;;;;;;;;5098295;27;20052;-77
2022/11/06 13:17:26;;;;;;;7.13;1.75;;;;;;;;;;5100593;28;20060;-78
2022/11/06 13:19:59;;;;;;;10.80;2.20;;;;;;;;;;5105380;27;20062;-79
2022/11/06 13:22:26;;;;;;;6.75;1.23;;;;;;;;;;5085476;28;20053;-78
2022/11/06 13:25:00;;;;;;;7.75;1.70;;;;;;;;;;5101318;28;20370;-78
2022/11/06 13:27:36;;;;;;;5.95;1.48;;;;;;;;;;5103377;28;20056;-78
2022/11/06 13:30:18;;;;;;;9.30;1.48;;;;;;;;;;5104845;28;20082;-79
2022/11/06 13:33:05;;;;;;;6.68;1.45;;;;;;;;;;5100709;27;20127;-78
2022/11/06 13:35:46;;;;;;;6.13;1.45;;;;;;;;;;5104382;28;20668;-77
2022/11/06 13:38:39;;;;;;;6.53;1.60;;;;;;;;;;5103076;28;20055;-78
2022/11/06 13:41:34;;;;;;;5.97;1.60;;;;;;;;;;5103890;28;20411;-79
2022/11/06 13:44:16;;;;;;;14.93;4.38;;;;;;;;;;5045641;28;20127;-79
2022/11/06 13:47:02;;;;;;;8.43;1.92;;;;;;;;;;5056840;28;20653;-78
2022/11/06 13:49:42;;;;;;;7.93;2.35;;;;;;;;;;5047430;28;20049;-79
2022/11/06 13:52:09;;;;;;;;;;;;;;;;;;5038628;28;20057;-78
2022/11/06 13:55:04;;;;;;;5.90;1.58;;;;;;;;;;5050009;28;47199;-80
2022/11/06 13:57:50;;;;;;;5.95;1.60;;;;;;;;;;5104611;28;20051;-78
2022/11/06 14:00:19;;;;;;;6.32;1.80;;;;;;;;;;5088910;28;20060;-79
2022/11/06 14:03:04;;;;;;;8.43;1.90;;;;;;;;;;5092795;28;20495;-80
2022/11/06 14:05:45;;;;;;;9.82;2.05;;;;;;;;;;5103548;28;20052;-78
2022/11/06 14:08:16;;;;;;;8.30;2.08;;;;;;;;;;5109569;27;20836;-81
2022/11/06 14:10:51;;;;;;;8.95;2.45;;;;;;;;;;5099810;28;20159;-79
2022/11/06 14:13:22;;;;;;;6.93;1.85;;;;;;;;;;5104154;28;20052;-79
2022/11/06 14:15:52;;;;;;;;;;;;;;;;;;5105791;28;20059;-80
2022/11/06 14:18:51;;;;;;;5.60;1.60;;;;;;;;;;5104348;28;43747;-79
2022/11/06 14:21:43;;;;;;;4.35;1.40;;;;;;;;;;5101379;28;20124;-80
2022/11/06 14:24:27;;;;;;;6.18;1.50;;;;;;;;;;5107313;28;20049;-80
2022/11/06 14:27:23;;;;;;;8.43;1.80;;;;;;;;;;5093747;28;20086;-79
2022/11/06 14:30:10;;;;;;;4.45;1.63;;;;;;;;;;5104131;28;20051;-82
2022/11/06 14:33:43;;;;;;;5.10;1.50;;;;;;;;;;5053587;28;20079;-83
2022/11/06 14:36:33;;;;;;;7.72;1.42;;;;;;;;;;5104596;28;20118;-83
2022/11/06 14:39:05;;;;;;;;;;;;;;;;;;5103826;28;20726;-80
2022/11/06 14:41:32;;;;;;;5.90;1.30;;;;;;;;;;5095255;28;42200;-77
2022/11/06 14:44:13;;;;;;;6.00;1.60;;;;;;;;;;5102565;28;20059;-80
2022/11/06 14:46:47;;;;;;;7.65;1.83;;;;;;;;;;5103135;27;20052;-78
2022/11/06 14:49:32;;;;;;;6.50;2.00;;;;;;;;;;5101330;28;20063;-80
2022/11/06 14:52:04;;;;;;;7.00;1.58;;;;;;;;;;5108138;28;20056;-78
2022/11/06 14:54:32;;;;;;;13.13;5.60;;;;;;;;;;5102812;28;20056;-78
2022/11/06 14:56:58;;;;;;;15.23;3.58;;;;;;;;;;5106013;28;21001;-79
2022/11/06 14:59:35;;;;;;;5.85;1.60;;;;;;;;;;5103294;28;20052;-78
2022/11/06 15:02:37;;;;;;;8.75;3.53;;;;;;;;;;5105516;28;20064;-78
2022/11/06 15:05:11;;;;;;;9.30;2.20;;;;;;;;;;5037885;28;20084;-78
2022/11/06 15:07:38;;;;;;;5.30;1.80;;;;;;;;;;5093364;28;20052;-78
2022/11/06 15:10:42;;;;;;;10.55;2.15;;;;;;;;;;5092430;28;20090;-77
2022/11/06 15:13:10;;;;;;;7.50;2.00;;;;;;;;;;5087568;28;20063;-78
2022/11/06 15:15:40;;;;;;;6.68;2.10;;;;;;;;;;5104406;28;20846;-80